createdAt,value
2019-02-15T00:32:26.129Z,0.90
2019-02-15T00:34:54.905Z,1.00
2019-02-15T00:37:23.585Z,1.20
2019-02-15T00:39:52.596Z,1.30
2019-02-15T00:42:21.279Z,1.30
2019-02-15T00:44:49.961Z,1.30
2019-02-15T00:47:20.293Z,1.20
2019-02-15T00:49:50.832Z,1.20
2019-02-15T00:52:21.101Z,1.20
2019-02-15T00:54:51.570Z,1.20
2019-02-15T00:57:21.832Z,1.20
2019-02-15T00:59:52.184Z,1.20
2019-02-15T01:02:21.995Z,1.20
2019-02-15T01:04:50.627Z,1.30
2019-02-15T01:07:21.018Z,1.40
2019-02-15T01:09:51.363Z,1.40
2019-02-15T01:12:21.691Z,1.40
2019-02-15T01:14:50.353Z,1.40
2019-02-15T01:17:19.112Z,1.40
2019-02-15T01:19:47.818Z,1.40
2019-02-15T01:22:16.584Z,1.50
2019-02-15T01:24:45.325Z,1.60
2019-02-15T01:27:15.676Z,1.60
2019-02-15T01:29:46.067Z,1.60
2019-02-15T01:32:16.313Z,1.50
2019-02-15T01:34:46.605Z,1.30
2019-02-15T01:37:17.805Z,1.30
2019-02-15T01:39:48.167Z,1.20
2019-02-15T01:42:18.032Z,1.20
2019-02-15T01:44:48.356Z,1.20
2019-02-15T01:47:17.919Z,1.30
2019-02-15T01:49:46.595Z,1.20
2019-02-15T01:52:15.297Z,1.10
2019-02-15T01:54:44.092Z,1.00
2019-02-15T01:57:12.865Z,1.00
2019-02-15T01:59:41.488Z,0.90
2019-02-15T02:02:10.273Z,1.00
2019-02-15T02:04:39.207Z,1.10
2019-02-15T02:07:08.022Z,1.20
2019-02-15T02:09:36.729Z,1.30
2019-02-15T02:12:05.742Z,1.40
2019-02-15T02:14:34.462Z,1.40
2019-02-15T02:17:03.189Z,1.40
2019-02-15T02:19:31.953Z,1.30
2019-02-15T02:22:00.650Z,1.30
2019-02-15T02:24:29.437Z,1.20
2019-02-15T02:26:58.095Z,1.20
2019-02-15T02:29:26.707Z,1.10
2019-02-15T03:31:38.782Z,0.90
2019-02-15T03:34:07.511Z,0.80
2019-02-15T03:36:37.775Z,0.70
2019-02-15T03:39:08.914Z,0.70
2019-02-15T03:41:37.660Z,0.70
2019-02-15T03:44:06.390Z,0.70
2019-02-15T03:46:35.110Z,0.90
2019-02-15T03:49:03.839Z,1.10
2019-02-15T03:51:32.586Z,1.10
2019-02-15T03:54:01.276Z,1.20
2019-02-15T03:56:30.023Z,1.20
2019-02-15T03:58:58.795Z,1.30
2019-02-15T04:01:27.488Z,1.30
2019-02-15T04:03:56.366Z,1.30
2019-02-15T04:06:25.050Z,1.20
2019-02-15T04:08:53.837Z,1.20
2019-02-15T04:11:22.585Z,1.20
2019-02-15T04:13:51.413Z,1.10
2019-02-15T04:16:20.118Z,1.10
2019-02-15T04:18:48.776Z,1.10
2019-02-15T04:21:17.459Z,1.10
2019-02-15T04:23:46.231Z,1.10
2019-02-15T04:26:14.844Z,1.10
2019-02-15T04:28:43.533Z,1.10
2019-02-15T04:31:12.336Z,1.10
2019-02-15T04:33:41.074Z,1.20
2019-02-15T04:36:10.023Z,1.30
2019-02-15T04:38:38.830Z,1.30
2019-02-15T04:41:07.778Z,1.30
2019-02-15T04:43:36.530Z,1.40
2019-02-15T04:46:05.281Z,1.40
2019-02-15T04:48:33.928Z,1.40
2019-02-15T04:51:02.507Z,1.40
2019-02-15T04:53:31.197Z,1.40
2019-02-15T04:55:59.901Z,1.40
2019-02-15T04:58:28.626Z,1.40
2019-02-15T05:00:57.290Z,1.30
2019-02-15T05:03:25.899Z,1.30
2019-02-15T05:05:54.660Z,1.30
2019-02-15T05:08:23.443Z,1.40
2019-02-15T05:10:52.402Z,1.30
2019-02-15T05:13:22.396Z,1.30
2019-02-15T05:15:51.165Z,1.30
2019-02-15T05:18:19.914Z,1.30
2019-02-15T05:20:48.617Z,1.20
2019-02-15T05:23:17.226Z,1.20
2019-02-15T05:25:45.925Z,1.30
2019-02-15T05:28:14.574Z,1.30
2019-02-15T05:30:43.381Z,1.30
2019-02-15T05:33:12.118Z,1.30
2019-02-15T05:35:40.779Z,1.40
2019-02-15T05:38:09.449Z,1.40
2019-02-15T05:40:38.173Z,1.50
2019-02-15T05:43:06.956Z,1.60
2019-02-15T05:45:35.729Z,1.60
2019-02-15T05:48:04.441Z,1.60
2019-02-15T05:50:33.183Z,1.70
2019-02-15T05:53:01.966Z,1.80
2019-02-15T05:55:30.691Z,1.80
2019-02-15T05:57:59.366Z,1.80
2019-02-15T06:00:36.743Z,1.90
2019-02-15T06:02:58.968Z,1.90
2019-02-15T06:05:27.709Z,2.00
2019-02-15T06:07:57.372Z,1.90
2019-02-15T06:10:26.070Z,2.00
2019-02-15T06:12:54.811Z,1.90
2019-02-15T06:15:23.529Z,1.90
2019-02-15T06:17:52.196Z,1.80
2019-02-15T06:20:21.000Z,1.70
2019-02-15T06:22:49.640Z,1.70
2019-02-15T06:25:18.333Z,1.70
2019-02-15T06:27:46.904Z,1.70
2019-02-15T06:30:15.773Z,1.80
2019-02-15T06:32:44.480Z,1.80
2019-02-15T06:35:14.512Z,1.80
2019-02-15T06:37:43.219Z,1.80
2019-02-15T06:40:11.854Z,1.80
2019-02-15T06:42:40.557Z,1.90
2019-02-15T06:45:09.297Z,1.90
2019-02-15T06:47:37.972Z,1.80
2019-02-15T06:50:08.018Z,1.80
2019-02-15T06:52:36.794Z,1.80
2019-02-15T06:55:06.750Z,1.80
2019-02-15T06:57:35.431Z,1.80
2019-02-15T07:00:08.582Z,2.10
2019-02-15T07:02:38.919Z,2.60
2019-02-15T07:05:08.850Z,3.10
2019-02-15T07:07:37.471Z,3.50
2019-02-15T07:10:07.271Z,3.80
2019-02-15T07:12:35.970Z,4.00
2019-02-15T07:15:05.992Z,4.30
2019-02-15T07:17:34.707Z,4.70
2019-02-15T07:20:03.749Z,4.90
2019-02-15T07:22:32.402Z,5.20
2019-02-15T07:25:01.176Z,5.50
2019-02-15T07:27:29.978Z,5.60
2019-02-15T07:29:58.629Z,5.80
2019-02-15T07:32:27.263Z,6.10
2019-02-15T07:34:55.859Z,6.40
2019-02-15T07:37:24.574Z,6.60
2019-02-15T07:39:53.242Z,6.90
2019-02-15T07:42:21.944Z,7.30
2019-02-15T07:44:50.536Z,7.70
2019-02-15T07:47:19.182Z,8.00
2019-02-15T07:49:47.971Z,8.30
2019-02-15T07:52:16.666Z,8.50
2019-02-15T07:54:45.519Z,8.50
2019-02-15T07:57:14.103Z,8.60
2019-02-15T07:59:42.807Z,8.50
2019-02-15T08:02:11.472Z,8.70
2019-02-15T08:04:40.160Z,8.60
2019-02-15T08:07:08.942Z,8.60
2019-02-15T08:09:37.665Z,9.10
2019-02-15T08:12:06.413Z,9.40
2019-02-15T08:14:35.107Z,9.80
2019-02-15T08:17:03.855Z,10.20
2019-02-15T08:19:32.555Z,10.50
2019-02-15T08:22:01.221Z,10.80
2019-02-15T08:24:29.973Z,10.60
2019-02-15T08:27:00.126Z,10.50
2019-02-15T08:29:28.803Z,10.50
2019-02-15T08:31:57.624Z,10.40
2019-02-15T08:34:26.480Z,10.80
2019-02-15T08:36:55.249Z,10.80
2019-02-15T08:39:23.988Z,10.70
2019-02-15T08:42:01.293Z,10.50
2019-02-15T08:44:23.430Z,10.50
2019-02-15T08:46:52.174Z,10.60
2019-02-15T08:49:20.803Z,11.00
2019-02-15T08:51:49.554Z,11.10
2019-02-15T08:54:18.282Z,11.30
2019-02-15T08:59:08.141Z,11.30
2019-02-15T09:01:36.782Z,11.50
2019-02-15T09:04:05.512Z,11.40
2019-02-15T09:06:34.266Z,11.60
2019-02-15T09:09:04.776Z,11.90
2019-02-15T09:11:33.516Z,12.10
2019-02-15T09:14:02.291Z,12.10
2019-02-15T09:16:30.977Z,12.40
2019-02-15T09:18:59.606Z,12.70
2019-02-15T09:21:28.247Z,13.20
2019-02-15T09:23:58.576Z,13.30
2019-02-15T09:26:27.231Z,13.70
2019-02-15T09:28:57.521Z,13.70
2019-02-15T09:31:26.404Z,13.70
2019-02-15T09:33:55.060Z,13.60
2019-02-15T09:36:23.878Z,13.60
2019-02-15T09:38:52.598Z,13.40
2019-02-15T09:41:21.301Z,13.30
2019-02-15T09:43:50.036Z,13.80
2019-02-15T09:46:20.143Z,14.20
2019-02-15T09:48:49.158Z,14.10
2019-02-15T09:51:17.877Z,13.60
2019-02-15T09:53:46.675Z,13.50
2019-02-15T09:56:15.330Z,13.70
2019-02-15T09:58:44.104Z,13.50
2019-02-15T10:01:12.940Z,13.40
2019-02-15T10:03:41.620Z,13.40
2019-02-15T10:06:10.330Z,13.50
2019-02-15T10:08:39.147Z,13.50
2019-02-15T10:11:07.880Z,13.30
2019-02-15T10:13:36.639Z,13.20
2019-02-15T10:16:05.474Z,13.30
2019-02-15T10:18:34.247Z,13.00
2019-02-15T10:21:02.993Z,13.00
2019-02-15T10:23:31.721Z,13.30
2019-02-15T10:26:00.471Z,13.30
2019-02-15T10:28:29.175Z,13.40
2019-02-15T10:30:58.068Z,13.40
2019-02-15T10:33:26.709Z,13.80
2019-02-15T10:35:55.367Z,13.70
2019-02-15T10:38:24.135Z,13.80
2019-02-15T10:40:52.994Z,13.50
2019-02-15T10:43:23.166Z,13.50
2019-02-15T10:45:51.953Z,13.70
2019-02-15T10:48:20.961Z,13.60
2019-02-15T10:50:49.838Z,13.50
2019-02-15T10:53:19.827Z,13.80
2019-02-15T10:56:03.207Z,14.00
2019-02-15T10:58:41.861Z,14.00
2019-02-15T11:01:10.580Z,14.00
2019-02-15T11:03:39.351Z,14.00
2019-02-15T11:06:08.631Z,13.90
2019-02-15T11:08:37.521Z,14.00
2019-02-15T11:11:06.300Z,14.10
2019-02-15T11:13:35.108Z,14.30
2019-02-15T11:16:03.867Z,14.50
2019-02-15T11:18:32.682Z,14.60
2019-02-15T11:21:01.547Z,14.80
2019-02-15T11:23:30.301Z,14.60
2019-02-15T11:25:59.080Z,14.70
2019-02-15T11:28:27.775Z,14.70
2019-02-15T11:30:56.668Z,14.80
2019-02-15T11:33:25.425Z,14.90
2019-02-15T11:35:54.172Z,15.10
2019-02-15T11:38:22.790Z,15.20
2019-02-15T11:40:51.482Z,15.30
2019-02-15T11:43:20.208Z,15.20
2019-02-15T11:45:48.943Z,15.20
2019-02-15T11:48:17.681Z,15.10
2019-02-15T11:50:46.556Z,15.00
2019-02-15T11:53:15.147Z,14.90
2019-02-15T11:55:44.087Z,14.90
2019-02-15T11:58:13.205Z,14.90
2019-02-15T12:00:42.355Z,15.00
2019-02-15T12:03:11.399Z,15.10
2019-02-15T12:05:40.032Z,15.20
2019-02-15T12:08:08.785Z,15.30
2019-02-15T12:10:37.603Z,15.40
2019-02-15T12:13:06.425Z,15.50
2019-02-15T12:15:35.160Z,15.50
2019-02-15T12:18:03.919Z,15.70
2019-02-15T12:20:32.695Z,15.90
2019-02-15T12:23:57.569Z,15.90
2019-02-15T12:25:47.487Z,16.00
2019-02-15T12:28:16.248Z,16.00
2019-02-15T12:30:50.817Z,16.10
2019-02-15T12:33:32.401Z,16.20
2019-02-15T12:36:02.621Z,16.10
2019-02-15T12:38:35.541Z,16.20
2019-02-15T12:41:13.492Z,16.30
2019-02-15T12:43:45.412Z,16.20
2019-02-15T12:46:14.324Z,16.20
2019-02-15T12:48:44.361Z,16.30
2019-02-15T12:51:16.936Z,16.20
2019-02-15T12:53:48.292Z,16.30
2019-02-15T12:56:16.881Z,16.30
2019-02-15T12:58:45.592Z,16.40
2019-02-15T13:01:14.329Z,16.40
2019-02-15T13:03:43.034Z,16.30
2019-02-15T13:06:11.756Z,16.40
2019-02-15T13:08:40.605Z,16.30
2019-02-15T13:11:09.326Z,16.30
2019-02-15T13:13:38.118Z,16.40
2019-02-15T13:16:06.992Z,16.50
2019-02-15T13:18:35.831Z,16.50
2019-02-15T13:21:04.679Z,16.50
2019-02-15T13:23:33.438Z,16.50
2019-02-15T13:26:08.573Z,16.60
2019-02-15T13:28:32.783Z,16.60
2019-02-15T13:31:14.199Z,16.60
2019-02-15T13:33:44.727Z,16.70
2019-02-15T13:36:13.404Z,16.70
2019-02-15T13:38:42.296Z,16.70
2019-02-15T13:41:11.101Z,16.70
2019-02-15T13:43:54.954Z,16.70
2019-02-15T13:46:25.120Z,16.80
2019-02-15T13:48:53.899Z,16.90
2019-02-15T13:51:24.553Z,16.90
2019-02-15T13:53:53.183Z,16.90
2019-02-15T13:56:22.021Z,16.90
2019-02-15T13:58:50.818Z,16.90
2019-02-15T14:01:19.714Z,16.90
2019-02-15T14:03:48.534Z,16.90
2019-02-15T14:06:17.295Z,17.00
2019-02-15T14:08:46.057Z,17.00
2019-02-15T14:11:14.851Z,17.00
2019-02-15T14:13:43.630Z,17.00
2019-02-15T14:16:12.408Z,17.10
2019-02-15T14:18:41.114Z,17.50
2019-02-15T14:21:09.888Z,18.60
2019-02-15T14:23:38.681Z,19.20
2019-02-15T14:26:07.478Z,19.60
2019-02-15T14:28:36.355Z,19.90
2019-02-15T14:31:09.071Z,20.00
2019-02-15T14:33:45.202Z,20.40
2019-02-15T14:36:15.552Z,20.50
2019-02-15T14:38:44.402Z,20.60
2019-02-15T14:41:13.272Z,20.70
2019-02-15T14:43:41.931Z,20.60
2019-02-15T14:46:10.673Z,20.40
2019-02-15T14:48:39.508Z,20.40
2019-02-15T14:51:08.334Z,20.20
2019-02-15T14:53:37.163Z,20.00
2019-02-15T14:56:06.308Z,20.00
2019-02-15T14:58:35.093Z,20.20
2019-02-15T15:01:06.524Z,20.30
2019-02-15T15:03:35.273Z,20.50
2019-02-15T15:06:04.058Z,20.30
2019-02-15T15:08:32.826Z,19.50
2019-02-15T15:11:01.487Z,18.60
2019-02-15T15:13:30.283Z,18.00
2019-02-15T15:15:59.032Z,17.70
2019-02-15T15:18:27.826Z,17.50
2019-02-15T15:20:56.631Z,17.40
2019-02-15T15:23:25.449Z,17.30
2019-02-15T15:25:54.193Z,17.20
2019-02-15T15:28:22.891Z,17.20
2019-02-15T15:30:51.824Z,17.10
2019-02-15T15:33:20.834Z,17.00
2019-02-15T15:35:49.609Z,16.90
2019-02-15T15:38:18.363Z,16.90
2019-02-15T15:40:47.257Z,16.80
2019-02-15T15:43:15.888Z,16.80
2019-02-15T15:45:44.767Z,16.80
2019-02-15T15:48:22.484Z,16.70
2019-02-15T15:50:45.478Z,16.60
2019-02-15T15:53:14.369Z,16.60
2019-02-15T15:55:43.059Z,16.60
2019-02-15T15:58:11.977Z,16.50
2019-02-15T16:00:40.750Z,16.40
2019-02-15T16:03:09.469Z,16.40
2019-02-15T16:05:38.413Z,16.30
2019-02-15T16:08:07.258Z,16.30
2019-02-15T16:10:35.954Z,16.20
2019-02-15T16:13:04.722Z,16.00
2019-02-15T16:15:33.547Z,15.90
2019-02-15T16:18:02.383Z,15.90
2019-02-15T16:20:31.196Z,15.90
2019-02-15T16:22:59.927Z,15.80
2019-02-15T16:25:28.578Z,15.70
2019-02-15T16:27:57.391Z,15.60
2019-02-15T16:30:26.227Z,15.60
2019-02-15T16:32:55.064Z,15.50
2019-02-15T16:35:23.868Z,15.40
2019-02-15T16:37:52.630Z,15.40
2019-02-15T16:40:21.470Z,15.30
2019-02-15T16:42:50.246Z,15.20
2019-02-15T16:45:19.152Z,15.10
2019-02-15T16:47:47.797Z,15.00
2019-02-15T16:50:16.510Z,14.90
2019-02-15T16:52:45.206Z,14.90
2019-02-15T16:55:14.016Z,14.80
2019-02-15T16:57:42.923Z,14.70
2019-02-15T17:00:13.262Z,14.60
2019-02-15T17:02:41.999Z,14.50
2019-02-15T17:05:11.053Z,14.50
2019-02-15T17:07:39.893Z,14.40
2019-02-15T17:10:10.125Z,14.40
2019-02-15T17:12:39.105Z,14.20
2019-02-15T17:15:10.845Z,14.20
2019-02-15T17:17:39.597Z,14.20
2019-02-15T17:20:09.854Z,14.20
2019-02-15T17:22:38.790Z,14.20
2019-02-15T17:25:09.901Z,14.10
2019-02-15T17:27:38.618Z,14.10
2019-02-15T17:30:10.019Z,14.00
2019-02-15T17:32:38.777Z,13.90
2019-02-15T17:35:09.891Z,13.80
2019-02-15T17:37:38.574Z,13.90
2019-02-15T17:40:10.148Z,13.90
2019-02-15T17:42:38.867Z,13.90
2019-02-15T17:45:10.085Z,13.90
2019-02-15T17:47:38.943Z,13.90
2019-02-15T17:50:09.972Z,13.90
2019-02-15T17:52:39.885Z,13.80
2019-02-15T17:55:10.164Z,13.70
2019-02-15T17:57:38.980Z,13.70
2019-02-15T18:00:10.818Z,13.70
2019-02-15T18:02:39.704Z,13.60
2019-02-15T18:05:11.747Z,13.50
2019-02-15T18:07:40.578Z,13.50
2019-02-15T18:10:09.353Z,13.60
2019-02-15T18:12:38.057Z,13.50
2019-02-15T18:15:07.309Z,13.40
2019-02-15T18:17:36.052Z,13.30
2019-02-15T18:20:06.272Z,13.30
2019-02-15T18:22:34.955Z,13.20
2019-02-15T18:25:04.574Z,13.10
2019-02-15T18:27:33.397Z,13.00
2019-02-15T18:30:02.143Z,13.00
2019-02-15T18:32:30.974Z,13.00
2019-02-15T18:34:59.811Z,13.10
2019-02-15T18:37:28.590Z,13.20
2019-02-15T18:39:57.465Z,13.10
2019-02-15T18:42:26.105Z,13.10
2019-02-15T18:44:54.836Z,13.00
2019-02-15T18:47:23.607Z,12.90
2019-02-15T18:49:52.414Z,12.80
2019-02-15T18:52:21.329Z,12.80
2019-02-15T18:54:50.416Z,12.80
2019-02-15T18:57:20.364Z,12.70
2019-02-15T18:59:49.183Z,12.60
2019-02-15T19:02:17.838Z,12.50
2019-02-15T19:04:46.684Z,12.40
2019-02-15T19:07:15.484Z,12.30
2019-02-15T19:09:44.283Z,12.20
2019-02-15T19:12:13.101Z,12.10
2019-02-15T19:14:41.832Z,12.10
2019-02-15T19:17:10.648Z,11.90
2019-02-15T19:19:39.453Z,11.80
2019-02-15T19:22:08.706Z,11.70
2019-02-15T19:24:37.387Z,11.60
2019-02-15T19:27:06.227Z,11.50
2019-02-15T19:29:35.101Z,11.40
2019-02-15T19:32:03.863Z,11.30
2019-02-15T19:34:32.638Z,11.10
2019-02-15T19:37:01.575Z,10.90
2019-02-15T19:39:30.403Z,10.70
2019-02-15T19:41:59.282Z,10.60
2019-02-15T19:44:28.020Z,10.50
2019-02-15T19:46:56.799Z,10.40
2019-02-15T19:49:25.535Z,10.30
2019-02-15T19:51:54.372Z,10.40
2019-02-15T19:54:23.154Z,10.30
2019-02-15T19:56:51.856Z,10.20
2019-02-15T19:59:20.701Z,10.10
2019-02-15T20:01:49.467Z,10.00
2019-02-15T20:04:18.291Z,9.90
2019-02-15T20:06:47.177Z,9.80
2019-02-15T20:09:15.945Z,9.70
2019-02-15T20:11:44.680Z,9.60
2019-02-15T20:14:13.532Z,9.60
2019-02-15T20:16:42.360Z,9.70
2019-02-15T20:19:11.128Z,9.70
2019-02-15T20:21:39.915Z,9.60
2019-02-15T20:24:08.631Z,9.50
2019-02-15T20:26:37.418Z,9.40
2019-02-15T20:29:06.238Z,9.40
2019-02-15T20:31:40.745Z,9.30
2019-02-15T20:34:09.476Z,9.20
2019-02-15T20:36:38.359Z,9.00
2019-02-15T20:39:07.265Z,9.00
2019-02-15T20:41:36.040Z,9.00
2019-02-15T20:44:04.819Z,9.00
2019-02-15T20:46:33.931Z,8.90
2019-02-15T20:49:04.867Z,8.80
2019-02-15T20:51:33.149Z,8.80
2019-02-15T20:54:01.946Z,8.70
2019-02-15T20:56:30.794Z,8.60
2019-02-15T20:58:59.489Z,8.60
2019-02-15T21:01:31.710Z,8.50
2019-02-15T21:04:00.384Z,8.50
2019-02-15T21:06:39.007Z,8.40
2019-02-15T21:09:02.101Z,8.40
2019-02-15T21:11:30.831Z,8.30
2019-02-15T21:13:59.673Z,8.20
2019-02-15T21:16:28.434Z,8.10
2019-02-15T21:18:58.103Z,8.10
2019-02-15T21:21:26.905Z,8.00
2019-02-15T21:23:55.704Z,8.10
2019-02-15T21:26:24.494Z,8.10
2019-02-15T21:28:53.537Z,8.00
2019-02-15T21:31:22.374Z,8.00
2019-02-15T21:33:51.188Z,7.90
2019-02-15T21:36:20.010Z,7.90
2019-02-15T21:38:48.737Z,8.00
2019-02-15T21:41:17.537Z,7.90
2019-02-15T21:43:46.289Z,8.00
2019-02-15T21:46:15.093Z,8.20
2019-02-15T21:48:45.183Z,8.10
2019-02-15T21:51:13.936Z,8.10
2019-02-15T21:53:42.595Z,8.00
2019-02-15T21:56:11.373Z,7.90
2019-02-15T21:58:40.004Z,7.80
2019-02-15T22:01:09.062Z,7.80
2019-02-15T22:03:37.908Z,7.80
2019-02-15T22:06:08.520Z,7.70
2019-02-15T22:08:38.858Z,7.70
2019-02-15T22:11:07.602Z,7.60
2019-02-15T22:13:36.483Z,7.30
2019-02-15T22:16:05.206Z,7.10
2019-02-15T22:18:33.860Z,6.90
2019-02-15T22:21:02.590Z,6.90
2019-02-15T22:23:31.429Z,6.80
2019-02-15T22:26:00.087Z,6.80
2019-02-15T22:28:28.919Z,6.70
2019-02-15T22:30:57.942Z,6.70
2019-02-15T22:33:26.569Z,6.80
2019-02-15T22:35:55.452Z,6.80
2019-02-15T22:38:24.282Z,7.00
2019-02-15T22:40:55.922Z,7.10
2019-02-15T22:43:24.664Z,7.10
2019-02-15T22:45:53.537Z,7.00
2019-02-15T22:48:22.261Z,6.80
2019-02-15T22:50:51.019Z,6.50
2019-02-15T22:53:25.485Z,6.40
2019-02-15T22:55:54.247Z,6.30
2019-02-15T22:58:23.068Z,6.10
2019-02-15T23:00:57.890Z,6.00
2019-02-15T23:03:27.956Z,5.90
2019-02-15T23:05:56.780Z,5.70
2019-02-15T23:08:25.585Z,5.50
2019-02-15T23:10:54.479Z,5.40
2019-02-15T23:13:24.702Z,5.30
2019-02-15T23:15:53.419Z,5.20
2019-02-15T23:18:22.280Z,5.10
2019-02-15T23:20:51.085Z,5.20
2019-02-15T23:23:19.792Z,5.40
2019-02-15T23:25:48.549Z,5.40
2019-02-15T23:28:17.245Z,5.30
2019-02-15T23:30:46.076Z,5.40
2019-02-15T23:33:14.854Z,5.70
2019-02-15T23:35:43.602Z,5.80
2019-02-15T23:38:12.292Z,5.80
2019-02-15T23:40:41.054Z,5.80
2019-02-15T23:43:09.725Z,5.80
2019-02-15T23:45:39.166Z,5.80
2019-02-15T23:48:07.928Z,5.70
2019-02-15T23:50:36.884Z,5.70
2019-02-15T23:53:05.688Z,5.70
2019-02-15T23:55:34.322Z,5.70
2019-02-15T23:58:03.178Z,5.70
